Antelope, Oregon
Current Conditions -  °F | °C
As of 5:35 PM on Monday 24 Nov 2014 (Local Time) from KS39 Reporting Station
Broken Clouds Broken Clouds  
Wind Chill:   Ceiling: 7500
Heat Index:   Visibility: 10mi
Dew Point:   Wind: 7mph
Humidity: 57%   Direction: 190°S
Pressure: 30.27"   Gusts: NA
Location:  44.91°N, 120.72°W
Report Text: KS39 250135Z AUTO 19006KT 10SM FEW050 SCT065 BKN075 08/00 A3027 RMK AO2
Loading
Personal Weather Stations






























Interactive Weather Map New forecast layout! Learn more

10-Day Weather Forecast

Advertisements
Track Severe Weather on mobile